Time;durP1;ratioP1;P1;durP2;ratioP2;P2;SDS_P1;SDS_P2;PMS_P1;PMS_P2;Temp;Humidity;BMP_temperature;BMP_pressure;BME280_temperature;BME280_humidity;BME280_pressure;Samples;Min_cycle;Max_cycle;Signal;HPM_P1;HPM_P2
2022/07/25 00:01:01;;;;;;;1.30;0.77;;;20.40;99.90;;;;;;6124750;23;20024;-78
2022/07/25 00:03:28;;;;;;;0.52;0.50;;;20.50;99.90;;;;;;6148179;23;20028;-77
2022/07/25 00:05:55;;;;;;;0.40;0.40;;;20.50;99.90;;;;;;6148939;23;20453;-78
2022/07/25 00:08:22;;;;;;;1.33;0.40;;;20.50;99.90;;;;;;6148686;23;20044;-78
2022/07/25 00:10:48;;;;;;;0.45;0.40;;;20.50;99.90;;;;;;6148872;23;20570;-78
2022/07/25 00:13:15;;;;;;;1.65;0.70;;;20.50;99.90;;;;;;6173161;23;20033;-78
2022/07/25 00:15:42;;;;;;;0.35;0.30;;;20.50;99.90;;;;;;6174452;23;20115;-78
2022/07/25 00:18:09;;;;;;;0.75;0.40;;;20.50;99.90;;;;;;6123994;23;20493;-78
2022/07/25 00:20:36;;;;;;;0.28;0.20;;;20.50;99.90;;;;;;6148483;23;20075;-78
2022/07/25 00:23:02;;;;;;;1.48;0.40;;;20.60;99.90;;;;;;6146734;23;20344;-78
2022/07/25 00:25:29;;;;;;;0.25;0.20;;;20.60;99.90;;;;;;6175998;23;20021;-78
2022/07/25 00:27:56;;;;;;;0.52;0.40;;;20.60;99.90;;;;;;6149591;23;20025;-78
2022/07/25 00:30:23;;;;;;;0.93;0.40;;;20.60;99.90;;;;;;6149730;23;20045;-78
2022/07/25 00:32:49;;;;;;;0.30;0.30;;;20.60;99.90;;;;;;6175770;23;20032;-77
2022/07/25 00:35:16;;;;;;;0.20;0.20;;;20.60;99.90;;;;;;6176475;23;20021;-78
2022/07/25 00:37:43;;;;;;;0.73;0.40;;;20.60;99.90;;;;;;6179569;23;20025;-78
2022/07/25 00:40:10;;;;;;;1.38;0.50;;;20.60;99.90;;;;;;6150550;23;20323;-78
2022/07/25 00:42:37;;;;;;;0.32;0.32;;;20.50;99.90;;;;;;6174524;23;20091;-78
2022/07/25 00:45:05;;;;;;;0.38;0.25;;;20.50;99.90;;;;;;6176763;23;20267;-77
2022/07/25 00:47:32;;;;;;;0.57;0.30;;;20.50;99.90;;;;;;6150979;23;20029;-78
2022/07/25 00:49:58;;;;;;;0.50;0.40;;;20.40;99.90;;;;;;6164141;23;20403;-78
2022/07/25 00:52:25;;;;;;;0.43;0.40;;;20.40;99.90;;;;;;6206752;23;20021;-78
2022/07/25 00:54:53;;;;;;;0.50;0.30;;;20.40;99.90;;;;;;6205036;23;20016;-78
2022/07/25 00:57:19;;;;;;;1.42;0.68;;;20.30;99.90;;;;;;6203406;23;20039;-78
2022/07/25 00:59:46;;;;;;;0.82;0.60;;;20.30;99.90;;;;;;6204938;23;20025;-78
2022/07/25 01:02:13;;;;;;;1.02;0.50;;;20.30;99.90;;;;;;6180012;23;20025;-78
2022/07/25 01:04:40;;;;;;;0.65;0.40;;;20.30;99.90;;;;;;6204798;23;20047;-78
2022/07/25 01:07:07;;;;;;;0.60;0.50;;;20.20;99.90;;;;;;6205464;23;20055;-78
2022/07/25 01:09:34;;;;;;;1.00;0.50;;;20.20;99.90;;;;;;6204530;23;20427;-78
2022/07/25 01:12:01;;;;;;;1.45;0.75;;;20.10;99.90;;;;;;6177740;23;20020;-78
2022/07/25 01:14:28;;;;;;;0.70;0.40;;;20.10;99.90;;;;;;6202700;23;20025;-78
2022/07/25 01:16:55;;;;;;;0.77;0.50;;;20.10;99.90;;;;;;6204265;23;20056;-78
2022/07/25 01:19:22;;;;;;;0.30;0.30;;;20.10;99.90;;;;;;6206411;23;20051;-78
2022/07/25 01:21:48;;;;;;;0.30;0.30;;;20.00;99.90;;;;;;6206050;23;20044;-78
2022/07/25 01:24:15;;;;;;;0.35;0.35;;;20.00;99.90;;;;;;6179349;23;20527;-78
2022/07/25 01:26:42;;;;;;;0.30;0.30;;;20.00;99.90;;;;;;6203807;23;20024;-78
2022/07/25 01:29:09;;;;;;;0.70;0.60;;;20.00;99.90;;;;;;6179271;23;20025;-78
2022/07/25 01:31:36;;;;;;;0.35;0.35;;;19.90;99.90;;;;;;6231067;22;20023;-88
2022/07/25 01:34:03;;;;;;;0.65;0.57;;;19.90;99.90;;;;;;6192354;22;20034;-90
2022/07/25 01:36:33;;;;;;;0.35;0.35;;;19.90;99.90;;;;;;6195113;22;20042;-91
2022/07/25 01:39:00;;;;;;;0.70;0.52;;;19.80;99.90;;;;;;6195175;22;20437;-90
2022/07/25 01:41:28;;;;;;;1.45;0.80;;;19.80;99.90;;;;;;6202121;22;20026;-92
2022/07/25 01:43:55;;;;;;;1.10;0.80;;;19.70;99.90;;;;;;6193871;22;20024;-90
2022/07/25 01:46:22;;;;;;;1.23;0.70;;;19.70;99.90;;;;;;6193286;22;20063;-88
2022/07/25 01:48:49;;;;;;;1.65;0.52;;;19.70;99.90;;;;;;6218978;22;20090;-91
2022/07/25 01:51:16;;;;;;;0.73;0.70;;;19.70;99.90;;;;;;6194546;22;20235;-89
2022/07/25 01:53:46;;;;;;;1.77;0.60;;;19.70;99.90;;;;;;6196974;22;20477;-90
2022/07/25 01:56:14;;;;;;;1.10;0.80;;;19.70;99.90;;;;;;6194914;22;20012;-89
2022/07/25 01:58:43;;;;;;;0.90;0.50;;;19.60;99.90;;;;;;6199600;22;20031;-89
2022/07/25 02:01:11;;;;;;;0.70;0.60;;;19.70;99.90;;;;;;6201045;22;20524;-88
2022/07/25 02:03:38;;;;;;;1.33;0.77;;;19.70;99.90;;;;;;6199897;22;20046;-89
2022/07/25 02:06:06;;;;;;;0.65;0.47;;;19.60;99.90;;;;;;6202436;22;20474;-89
2022/07/25 02:08:33;;;;;;;0.40;0.32;;;19.60;99.90;;;;;;6199228;22;20470;-89
2022/07/25 02:11:00;;;;;;;0.68;0.60;;;19.70;99.90;;;;;;6194228;22;20069;-88
2022/07/25 02:13:27;;;;;;;1.02;0.63;;;19.70;99.90;;;;;;6191514;22;20023;-88
2022/07/25 02:15:54;;;;;;;1.30;0.90;;;19.60;99.90;;;;;;6193302;22;20023;-89
2022/07/25 02:18:21;;;;;;;0.68;0.60;;;19.60;99.90;;;;;;6193270;22;20016;-89
2022/07/25 02:20:48;;;;;;;0.90;0.80;;;19.60;99.90;;;;;;6192600;22;20095;-89
2022/07/25 02:23:15;;;;;;;0.95;0.50;;;19.60;99.90;;;;;;6192682;22;20453;-87
2022/07/25 02:25:42;;;;;;;1.15;0.70;;;19.60;99.90;;;;;;6195431;22;20047;-89
2022/07/25 02:28:09;;;;;;;0.85;0.60;;;19.60;99.90;;;;;;6199561;22;20056;-88
2022/07/25 02:30:37;;;;;;;1.20;0.75;;;19.50;99.90;;;;;;6198265;22;20081;-88
2022/07/25 02:33:04;;;;;;;0.60;0.40;;;19.40;99.90;;;;;;6235538;22;20024;-89
2022/07/25 02:35:31;;;;;;;1.02;0.73;;;19.40;99.90;;;;;;6218224;22;20050;-89
2022/07/25 02:37:58;;;;;;;1.23;0.77;;;19.40;99.90;;;;;;6217278;22;20012;-89
2022/07/25 02:40:25;;;;;;;1.00;0.70;;;19.40;99.90;;;;;;6217426;22;20023;-90
2022/07/25 02:42:53;;;;;;;0.45;0.30;;;19.40;99.90;;;;;;6217452;22;20024;-88
2022/07/25 02:45:20;;;;;;;0.60;0.60;;;19.40;99.90;;;;;;6242397;22;20016;-91
2022/07/25 02:47:47;;;;;;;0.98;0.50;;;19.30;99.90;;;;;;6217301;22;20039;-86
2022/07/25 02:50:14;;;;;;;0.85;0.50;;;19.30;99.90;;;;;;6220227;22;20099;-90
2022/07/25 02:52:41;;;;;;;0.95;0.70;;;19.30;99.90;;;;;;6220548;22;20012;-88
2022/07/25 02:55:09;;;;;;;0.98;0.50;;;19.20;99.90;;;;;;6243397;22;20446;-88
2022/07/25 02:57:36;;;;;;;1.38;0.80;;;19.20;99.90;;;;;;6217004;22;20259;-90
2022/07/25 03:00:04;;;;;;;1.85;0.75;;;19.20;99.90;;;;;;6218205;22;20012;-88
2022/07/25 03:02:31;;;;;;;0.90;0.50;;;19.20;99.90;;;;;;6230898;22;20075;-89
2022/07/25 03:04:58;;;;;;;0.60;0.50;;;19.10;99.90;;;;;;6223878;22;20015;-88
2022/07/25 03:28:54;;;;;;;1.08;0.60;;;19.10;99.90;;;;;;6270124;22;20110;-93
2022/07/25 03:31:21;;;;;;;1.92;0.90;;;19.10;99.90;;;;;;6203196;22;20019;-92
2022/07/25 03:33:48;;;;;;;1.17;0.68;;;19.10;99.90;;;;;;6205096;22;20269;-91
2022/07/25 03:36:16;;;;;;;1.50;0.80;;;19.10;99.90;;;;;;6204974;22;20026;-92
2022/07/25 03:38:45;;;;;;;0.85;0.55;;;19.00;99.90;;;;;;6206207;22;20363;-88
2022/07/25 03:41:13;;;;;;;0.80;0.45;;;19.00;99.90;;;;;;6194740;22;20118;-89
2022/07/25 03:43:40;;;;;;;1.35;0.80;;;19.00;99.90;;;;;;6192216;22;20038;-89
2022/07/25 03:46:07;;;;;;;0.85;0.57;;;19.00;99.90;;;;;;6193868;22;20016;-89
2022/07/25 03:48:34;;;;;;;1.55;0.88;;;19.00;99.90;;;;;;6195405;22;20050;-90
2022/07/25 03:51:01;;;;;;;0.60;0.60;;;19.00;99.90;;;;;;6201007;22;20219;-89
2022/07/25 03:54:00;;;;;;;1.83;1.05;;;19.10;99.90;;;;;;6201072;22;20016;-90
2022/07/25 03:56:20;;;;;;;0.90;0.73;;;19.10;99.90;;;;;;6228848;22;20019;-90
2022/07/25 03:58:47;;;;;;;0.88;0.65;;;19.10;99.90;;;;;;6194787;22;20016;-89
2022/07/25 04:01:14;;;;;;;1.45;0.65;;;19.10;99.90;;;;;;6196548;22;20154;-89
2022/07/25 04:03:41;;;;;;;1.92;0.73;;;19.10;99.90;;;;;;6197438;22;20062;-90
2022/07/25 04:06:10;;;;;;;1.48;0.80;;;19.10;99.90;;;;;;6197939;22;20016;-90
2022/07/25 04:08:37;;;;;;;1.30;0.70;;;19.10;99.90;;;;;;6196929;22;20016;-89
2022/07/25 04:11:04;;;;;;;1.10;0.70;;;19.10;99.90;;;;;;6196974;22;20012;-89
2022/07/25 04:13:31;;;;;;;0.80;0.60;;;19.10;99.90;;;;;;6195517;22;20042;-90
2022/07/25 04:15:58;;;;;;;1.42;0.70;;;19.10;99.90;;;;;;6200828;22;20020;-90
2022/07/25 04:18:25;;;;;;;0.82;0.60;;;19.20;99.90;;;;;;6204242;22;20081;-89
2022/07/25 04:20:55;;;;;;;0.98;0.60;;;19.20;99.90;;;;;;6197994;22;20477;-90
2022/07/25 04:23:23;;;;;;;0.38;0.38;;;19.20;99.90;;;;;;6195956;22;20034;-91
2022/07/25 04:26:02;;;;;;;1.00;0.50;;;19.10;99.90;;;;;;6198331;22;20016;-90
2022/07/25 04:28:29;;;;;;;1.15;0.50;;;19.10;99.90;;;;;;6216310;22;20020;-89
2022/07/25 04:30:58;;;;;;;1.13;0.70;;;19.10;99.90;;;;;;6221745;22;20022;-88
2022/07/25 04:33:25;;;;;;;1.10;0.70;;;19.10;99.90;;;;;;6220138;22;20016;-87
2022/07/25 04:35:52;;;;;;;1.88;1.00;;;19.00;99.90;;;;;;6221067;22;20026;-88
2022/07/25 04:38:20;;;;;;;0.70;0.57;;;19.00;99.90;;;;;;6218783;22;20081;-88
2022/07/25 04:40:47;;;;;;;1.90;0.95;;;18.90;99.90;;;;;;6220696;22;20098;-87
2022/07/25 04:43:16;;;;;;;0.93;0.60;;;18.80;99.90;;;;;;6222355;22;20012;-86
2022/07/25 04:45:42;;;;;;;1.13;0.98;;;18.80;99.90;;;;;;6223002;22;20430;-87
2022/07/25 04:48:10;;;;;;;1.23;0.70;;;18.80;99.90;;;;;;6221261;22;20023;-88
2022/07/25 04:50:37;;;;;;;1.13;0.90;;;18.80;99.90;;;;;;6221288;22;20019;-88
2022/07/25 04:53:04;;;;;;;2.47;1.15;;;18.70;99.90;;;;;;6221149;22;20028;-88
2022/07/25 04:55:31;;;;;;;0.95;0.60;;;18.70;99.90;;;;;;6221477;22;20341;-87
2022/07/25 04:57:59;;;;;;;1.05;0.63;;;18.80;99.90;;;;;;6226276;22;20024;-86
2022/07/25 05:00:26;;;;;;;0.82;0.47;;;18.80;99.90;;;;;;6229050;22;20035;-88
2022/07/25 05:02:53;;;;;;;0.70;0.57;;;18.80;99.90;;;;;;6233326;22;20015;-88
2022/07/25 05:05:21;;;;;;;1.13;0.70;;;18.80;99.90;;;;;;6256879;22;20019;-88
2022/07/25 05:07:49;;;;;;;1.20;0.70;;;18.80;99.90;;;;;;6222896;22;20020;-88
2022/07/25 05:10:16;;;;;;;1.08;0.60;;;18.80;99.90;;;;;;6221896;22;20019;-92
2022/07/25 05:12:43;;;;;;;1.38;0.70;;;18.70;99.90;;;;;;6221240;22;20016;-88
2022/07/25 05:15:11;;;;;;;1.45;0.68;;;18.70;99.90;;;;;;6222074;22;20030;-87
2022/07/25 05:17:38;;;;;;;1.00;0.68;;;18.70;99.90;;;;;;6223014;22;20099;-89
2022/07/25 05:20:06;;;;;;;0.73;0.60;;;18.70;99.90;;;;;;6221636;22;20019;-87
2022/07/25 05:22:33;;;;;;;1.77;0.70;;;18.60;99.90;;;;;;6221249;22;20117;-87
2022/07/25 05:25:01;;;;;;;1.77;0.90;;;18.60;99.90;;;;;;6220720;22;20015;-86
2022/07/25 05:27:29;;;;;;;0.80;0.60;;;18.60;99.90;;;;;;6208359;23;20031;-87
2022/07/25 05:29:57;;;;;;;1.80;0.85;;;18.60;99.90;;;;;;6188993;23;20031;-89
2022/07/25 05:32:24;;;;;;;1.85;1.02;;;18.60;99.90;;;;;;6189467;23;20451;-88
2022/07/25 05:34:51;;;;;;;1.83;0.80;;;18.60;99.90;;;;;;6195920;23;20020;-89
2022/07/25 05:37:18;;;;;;;3.70;1.20;;;18.60;99.90;;;;;;6196018;23;20020;-89
2022/07/25 05:39:46;;;;;;;1.15;0.77;;;18.60;99.90;;;;;;6195188;23;20023;-88
2022/07/25 05:42:13;;;;;;;1.83;0.90;;;18.60;99.90;;;;;;6198233;23;20066;-87
2022/07/25 05:44:40;;;;;;;2.00;0.90;;;18.70;99.90;;;;;;6224368;23;20094;-89
2022/07/25 05:47:10;;;;;;;1.05;0.70;;;18.70;99.90;;;;;;6227402;23;20016;-89
2022/07/25 05:49:38;;;;;;;1.05;0.55;;;18.70;99.90;;;;;;6199058;23;20084;-90
2022/07/25 05:52:05;;;;;;;1.40;0.73;;;18.70;99.90;;;;;;6195844;23;20110;-92
2022/07/25 05:54:39;;;;;;;2.70;0.82;;;18.80;99.90;;;;;;6223478;23;20082;-91
2022/07/25 05:57:07;;;;;;;1.67;0.98;;;18.90;99.90;;;;;;6198141;23;20032;-92
2022/07/25 05:59:38;;;;;;;1.93;0.97;;;19.10;99.90;;;;;;6225021;23;20446;-92
2022/07/25 06:02:08;;;;;;;2.10;1.08;;;19.20;99.90;;;;;;6221932;23;20281;-91
2022/07/25 06:04:40;;;;;;;2.00;1.00;;;19.20;99.90;;;;;;6200254;23;20016;-91
2022/07/25 06:07:15;;;;;;;2.28;0.80;;;19.20;99.90;;;;;;6225203;23;20082;-92
2022/07/25 06:09:43;;;;;;;2.17;0.90;;;19.20;99.90;;;;;;6238310;22;20073;-92
2022/07/25 06:12:10;;;;;;;1.33;0.73;;;19.20;99.90;;;;;;6212355;23;20020;-88
2022/07/25 06:14:42;;;;;;;1.30;0.70;;;19.20;99.90;;;;;;6233780;23;20020;-93
2022/07/25 06:17:25;;;;;;;1.83;0.60;;;19.20;99.90;;;;;;6205928;23;20016;-93
2022/07/25 06:19:58;;;;;;;1.25;0.60;;;19.30;99.90;;;;;;6219423;23;20074;-90
2022/07/25 06:22:25;;;;;;;1.58;0.70;;;19.40;99.90;;;;;;6194404;23;20020;-89
2022/07/25 06:24:55;;;;;;;1.20;0.68;;;19.50;99.90;;;;;;6191343;23;20089;-91
2022/07/25 06:27:25;;;;;;;1.83;0.75;;;19.60;99.90;;;;;;6216139;23;20028;-90
2022/07/25 06:29:57;;;;;;;1.50;0.70;;;19.60;99.90;;;;;;6191942;23;20046;-89
2022/07/25 06:32:24;;;;;;;2.40;0.70;;;19.70;99.90;;;;;;6192834;23;20035;-90
2022/07/25 06:34:51;;;;;;;0.63;0.40;;;19.70;99.90;;;;;;6194757;23;20039;-90
2022/07/25 06:37:18;;;;;;;0.80;0.68;;;19.70;99.90;;;;;;6195617;23;20406;-92
2022/07/25 06:39:48;;;;;;;1.60;0.90;;;19.80;99.90;;;;;;6219862;23;20016;-91
2022/07/25 06:42:15;;;;;;;1.17;0.68;;;19.80;99.90;;;;;;6219484;23;20019;-90
2022/07/25 06:44:43;;;;;;;1.67;0.82;;;19.90;99.90;;;;;;6219017;23;20030;-90
2022/07/25 06:47:13;;;;;;;1.77;1.13;;;20.00;99.90;;;;;;6195246;23;20438;-89
2022/07/25 06:49:41;;;;;;;1.13;0.52;;;20.10;99.90;;;;;;6194906;23;20123;-89
2022/07/25 06:52:08;;;;;;;1.55;0.82;;;20.20;99.90;;;;;;6195582;23;20374;-89
2022/07/25 06:54:36;;;;;;;1.70;0.80;;;20.30;99.90;;;;;;6220208;23;20061;-90
2022/07/25 06:57:11;;;;;;;1.23;0.70;;;20.30;99.90;;;;;;6198198;23;20423;-90
2022/07/25 06:59:38;;;;;;;2.03;0.90;;;20.30;99.90;;;;;;6193820;23;20027;-90
2022/07/25 07:02:05;;;;;;;1.90;0.90;;;20.30;99.90;;;;;;6219932;23;20016;-90
2022/07/25 07:04:32;;;;;;;1.80;0.80;;;20.30;99.90;;;;;;6193514;23;20022;-90
2022/07/25 07:07:00;;;;;;;1.27;0.73;;;20.40;99.90;;;;;;6195167;23;20139;-90
2022/07/25 07:09:27;;;;;;;2.63;1.00;;;20.40;99.90;;;;;;6196464;23;20016;-89
2022/07/25 07:11:54;;;;;;;1.85;0.80;;;20.40;99.90;;;;;;6193823;23;20038;-89
2022/07/25 07:14:21;;;;;;;2.97;1.00;;;20.40;99.90;;;;;;6193393;23;20044;-90
2022/07/25 07:16:49;;;;;;;1.35;0.63;;;20.50;99.90;;;;;;6236184;23;20016;-90
2022/07/25 07:19:16;;;;;;;1.17;0.68;;;20.40;99.90;;;;;;6208475;23;20046;-89
2022/07/25 07:21:44;;;;;;;3.75;1.00;;;20.50;99.90;;;;;;6220559;23;20016;-90
2022/07/25 07:24:15;;;;;;;1.45;0.77;;;20.50;99.90;;;;;;6194786;23;20027;-90
2022/07/25 07:26:50;;;;;;;1.48;0.98;;;20.60;99.90;;;;;;6199159;22;20091;-90
2022/07/25 07:29:18;;;;;;;2.30;1.00;;;20.60;99.90;;;;;;6199308;22;20230;-90
2022/07/25 07:31:44;;;;;;;1.85;1.10;;;20.70;99.90;;;;;;6199927;22;20062;-90
2022/07/25 07:34:12;;;;;;;1.98;0.80;;;20.70;99.90;;;;;;6199644;22;20273;-91
2022/07/25 07:36:42;;;;;;;1.30;0.80;;;20.80;99.90;;;;;;6202713;22;20118;-90
2022/07/25 07:39:10;;;;;;;1.40;0.75;;;20.80;99.90;;;;;;6199947;22;20012;-90
2022/07/25 07:41:37;;;;;;;2.22;1.00;;;20.80;99.90;;;;;;6199272;22;20023;-90
2022/07/25 07:44:07;;;;;;;1.15;0.60;;;20.80;99.90;;;;;;6201022;22;20012;-90
2022/07/25 07:46:34;;;;;;;0.90;0.45;;;20.90;99.90;;;;;;6200677;22;20050;-90
2022/07/25 07:49:04;;;;;;;1.38;0.68;;;21.00;99.90;;;;;;6204005;22;20022;-91
2022/07/25 07:51:32;;;;;;;2.97;1.10;;;21.00;99.90;;;;;;6199276;22;20020;-91
2022/07/25 07:56:47;;;;;;;1.55;0.65;;;21.10;99.90;;;;;;6234280;22;20035;-90
2022/07/25 07:59:15;;;;;;;1.67;0.77;;;21.10;99.90;;;;;;6200911;22;20039;-91
2022/07/25 08:01:42;;;;;;;1.08;0.65;;;21.00;99.90;;;;;;6199698;22;20039;-91
2022/07/25 08:04:09;;;;;;;2.00;1.10;;;21.00;99.90;;;;;;6198865;22;20435;-90
2022/07/25 08:06:36;;;;;;;2.83;0.90;;;20.80;99.90;;;;;;6199933;22;20457;-91
2022/07/25 08:09:04;;;;;;;2.28;1.00;;;20.90;99.90;;;;;;6202353;22;20020;-91
2022/07/25 08:11:31;;;;;;;1.55;0.60;;;21.10;99.90;;;;;;6200136;22;20098;-89
2022/07/25 08:14:01;;;;;;;1.00;0.65;;;21.10;99.90;;;;;;6200314;22;20035;-93
2022/07/25 08:16:28;;;;;;;0.68;0.50;;;21.00;99.90;;;;;;6200217;22;20027;-91
2022/07/25 08:18:56;;;;;;;2.00;0.70;;;21.00;99.90;;;;;;6200986;22;20020;-90
2022/07/25 08:21:24;;;;;;;0.82;0.40;;;21.00;99.90;;;;;;6200732;22;20012;-91
2022/07/25 08:23:51;;;;;;;1.38;0.60;;;21.00;99.90;;;;;;6199732;22;20254;-89
2022/07/25 08:26:18;;;;;;;1.95;0.70;;;21.00;99.90;;;;;;6198668;22;20042;-90
2022/07/25 08:28:46;;;;;;;2.15;0.70;;;21.00;99.90;;;;;;6221534;22;20038;-90
2022/07/25 08:31:26;;;;;;;0.93;0.60;;;21.00;99.90;;;;;;6233759;22;20043;-90
2022/07/25 08:33:54;;;;;;;0.82;0.60;;;20.90;99.90;;;;;;6226634;22;20016;-90
2022/07/25 08:36:24;;;;;;;1.40;0.73;;;20.90;99.90;;;;;;6227452;22;20016;-92
2022/07/25 08:38:51;;;;;;;1.55;0.70;;;21.10;99.90;;;;;;6224638;22;20023;-89
2022/07/25 08:41:19;;;;;;;1.17;0.60;;;21.20;99.90;;;;;;6225251;22;20099;-91
2022/07/25 08:43:50;;;;;;;0.95;0.60;;;21.40;99.80;;;;;;6229688;22;20402;-91
2022/07/25 08:46:20;;;;;;;0.52;0.40;;;21.50;99.30;;;;;;6228356;22;20100;-91
2022/07/25 08:48:47;;;;;;;1.00;0.40;;;21.50;99.40;;;;;;6230015;22;20027;-91
2022/07/25 08:51:14;;;;;;;0.95;0.30;;;21.50;99.40;;;;;;6225820;22;20020;-90
2022/07/25 08:53:42;;;;;;;0.22;0.20;;;21.50;99.60;;;;;;6225632;22;20089;-90
2022/07/25 08:56:14;;;;;;;0.93;0.50;;;21.40;99.50;;;;;;6228780;22;20024;-90
2022/07/25 08:58:47;;;;;;;;;;;21.30;99.70;;;;;;6228256;22;20023;-90
2022/07/25 09:01:14;;;;;;;0.45;0.45;;;21.20;99.90;;;;;;6250958;22;19923;-90
2022/07/25 09:03:47;;;;;;;1.20;0.57;;;21.20;99.90;;;;;;6223837;22;20054;-90
2022/07/25 09:06:17;;;;;;;1.58;0.50;;;21.20;99.80;;;;;;6225872;22;20015;-90
2022/07/25 09:08:57;;;;;;;2.03;0.75;;;21.20;99.60;;;;;;6251164;22;20525;-91
2022/07/25 09:11:34;;;;;;;0.40;0.40;;;21.30;99.50;;;;;;6227387;22;20451;-91
2022/07/25 09:14:07;;;;;;;1.20;0.50;;;21.20;99.60;;;;;;6225830;22;20458;-91
2022/07/25 09:16:38;;;;;;;0.95;0.60;;;21.00;99.80;;;;;;6226515;22;20015;-90
2022/07/25 09:19:26;;;;;;;1.90;0.80;;;20.80;99.90;;;;;;6229736;22;20031;-91
2022/07/25 09:21:59;;;;;;;1.85;0.80;;;20.60;99.90;;;;;;6250889;22;20037;-90
2022/07/25 09:24:26;;;;;;;1.00;0.60;;;20.60;99.90;;;;;;6224044;22;20020;-90
2022/07/25 09:26:55;;;;;;;1.02;0.60;;;20.60;99.90;;;;;;6222557;22;20020;-91
2022/07/25 09:29:24;;;;;;;0.93;0.50;;;20.70;99.90;;;;;;6196879;22;20027;-92
2022/07/25 09:31:52;;;;;;;1.27;0.57;;;20.80;99.90;;;;;;6201643;22;20380;-90
2022/07/25 09:34:30;;;;;;;1.17;0.70;;;20.80;99.90;;;;;;6210359;22;20016;-90
2022/07/25 09:36:58;;;;;;;0.95;0.57;;;20.90;99.90;;;;;;6238429;22;20031;-91
2022/07/25 09:39:45;;;;;;;1.00;0.40;;;21.00;99.80;;;;;;6207991;22;20039;-90
2022/07/25 09:42:19;;;;;;;0.98;0.60;;;21.00;99.90;;;;;;6227297;22;20012;-91
2022/07/25 09:45:11;;;;;;;0.60;0.40;;;21.10;99.90;;;;;;6200964;22;20038;-92
2022/07/25 09:47:53;;;;;;;0.90;0.37;;;21.40;99.60;;;;;;6200989;22;20403;-91
2022/07/25 09:50:23;;;;;;;1.52;0.70;;;21.80;98.90;;;;;;6200890;22;20328;-91
2022/07/25 09:52:52;;;;;;;1.25;0.52;;;22.00;98.20;;;;;;6202448;22;20019;-90
2022/07/25 09:55:20;;;;;;;0.45;0.30;;;22.10;98.20;;;;;;6201320;22;20023;-91
2022/07/25 09:57:48;;;;;;;1.02;0.50;;;22.10;98.30;;;;;;6201074;22;20095;-91
2022/07/25 10:00:22;;;;;;;0.80;0.60;;;21.90;98.20;;;;;;6202149;22;20081;-91
2022/07/25 10:03:16;;;;;;;1.15;0.50;;;21.60;98.30;;;;;;6201420;22;20016;-90
2022/07/25 10:06:01;;;;;;;0.63;0.43;;;21.60;98.50;;;;;;6206538;22;20445;-92
2022/07/25 10:08:29;;;;;;;0.47;0.35;;;21.60;98.40;;;;;;6201077;22;20446;-91
2022/07/25 10:10:56;;;;;;;0.57;0.38;;;21.80;98.40;;;;;;6200589;22;20023;-92
2022/07/25 10:13:33;;;;;;;0.90;0.45;;;22.10;97.90;;;;;;6199659;22;20020;-91
2022/07/25 10:16:00;;;;;;;0.88;0.38;;;22.30;97.30;;;;;;6200647;22;20019;-91
2022/07/25 10:18:28;;;;;;;0.35;0.20;;;22.50;97.30;;;;;;6251695;22;20016;-91
2022/07/25 10:21:08;;;;;;;1.25;0.38;;;22.80;96.70;;;;;;6204104;22;20099;-92
2022/07/25 10:24:36;;;;;;;1.33;0.43;;;23.00;96.30;;;;;;6211436;22;20046;-91
2022/07/25 10:27:10;;;;;;;1.05;0.50;;;22.90;96.30;;;;;;6086902;22;20030;-91
2022/07/25 10:29:41;;;;;;;0.90;0.52;;;23.10;95.80;;;;;;6223359;22;20016;-92
2022/07/25 10:32:11;;;;;;;0.93;0.40;;;23.30;95.70;;;;;;6225615;22;20020;-91
2022/07/25 10:34:39;;;;;;;0.30;0.30;;;23.20;95.00;;;;;;6226336;22;20035;-92
2022/07/25 10:37:14;;;;;;;0.28;0.22;;;23.20;94.90;;;;;;6226354;22;20023;-91
2022/07/25 10:39:43;;;;;;;0.50;0.30;;;23.10;94.90;;;;;;6223909;22;20016;-90
2022/07/25 10:42:15;;;;;;;0.50;0.30;;;23.10;94.90;;;;;;6225241;22;20054;-91
2022/07/25 10:44:50;;;;;;;0.35;0.20;;;23.10;94.60;;;;;;6224039;22;20015;-92
2022/07/25 10:47:23;;;;;;;0.20;0.20;;;23.20;94.40;;;;;;6234716;22;20023;-91
2022/07/25 10:50:00;;;;;;;0.45;0.40;;;23.40;94.10;;;;;;6228162;22;20042;-90
2022/07/25 10:52:57;;;;;;;0.60;0.40;;;23.80;93.80;;;;;;6234262;22;20019;-90
2022/07/25 10:55:27;;;;;;;0.32;0.30;;;24.00;93.00;;;;;;6225920;22;20046;-91
2022/07/25 10:58:03;;;;;;;0.45;0.30;;;24.00;92.60;;;;;;6223890;22;20031;-91
2022/07/25 11:00:49;;;;;;;0.38;0.22;;;24.10;92.90;;;;;;6233419;22;20039;-92
2022/07/25 11:03:17;;;;;;;0.10;0.10;;;24.20;92.20;;;;;;6227663;22;20036;-91
2022/07/25 11:05:46;;;;;;;0.80;0.30;;;24.10;92.50;;;;;;6225736;22;20173;-90
2022/07/25 11:08:14;;;;;;;0.57;0.30;;;23.90;92.60;;;;;;6225731;22;20093;-92
2022/07/25 11:10:52;;;;;;;0.38;0.30;;;23.90;92.60;;;;;;6229368;22;20023;-90
2022/07/25 11:13:22;;;;;;;0.20;0.20;;;23.80;92.20;;;;;;6225751;22;20020;-90
2022/07/25 11:15:49;;;;;;;1.48;0.40;;;23.70;92.30;;;;;;6223895;22;20023;-91
2022/07/25 11:18:17;;;;;;;2.05;0.35;;;23.70;92.40;;;;;;6224894;22;20342;-91
2022/07/25 11:20:44;;;;;;;0.98;0.28;;;23.70;92.30;;;;;;6225037;22;20020;-91
2022/07/25 11:23:12;;;;;;;0.65;0.20;;;23.70;92.50;;;;;;6223856;22;20504;-91
2022/07/25 11:25:41;;;;;;;0.88;0.30;;;23.60;92.70;;;;;;6222036;22;20081;-91
2022/07/25 11:28:10;;;;;;;0.10;0.10;;;23.50;92.90;;;;;;6221583;22;20023;-91
2022/07/25 11:30:40;;;;;;;0.85;0.30;;;23.60;92.70;;;;;;6224153;22;20026;-91
2022/07/25 11:33:07;;;;;;;0.28;0.20;;;23.40;92.80;;;;;;6224066;22;20304;-91
2022/07/25 11:35:37;;;;;;;0.10;0.10;;;23.30;92.50;;;;;;6223729;22;20110;-90
2022/07/25 11:38:09;;;;;;;0.20;0.20;;;23.30;92.40;;;;;;6223129;22;20027;-92
2022/07/25 11:40:42;;;;;;;0.50;0.20;;;23.10;92.90;;;;;;6223550;22;20023;-92
2022/07/25 11:43:18;;;;;;;0.28;0.20;;;22.90;93.80;;;;;;6222900;22;20044;-92
2022/07/25 11:46:16;;;;;;;0.60;0.30;;;22.60;94.90;;;;;;6228311;22;20439;-93
2022/07/25 11:49:01;;;;;;;;;;;;;;;;;;;;;
2022/07/25 11:51:37;;;;;;;0.55;0.38;;;22.00;99.10;;;;;;6263283;22;20019;-92
2022/07/25 11:54:12;;;;;;;0.50;0.43;;;21.50;99.90;;;;;;6234770;22;20020;-92
2022/07/25 11:56:39;;;;;;;0.82;0.40;;;21.20;99.90;;;;;;6235220;22;20019;-91
2022/07/25 11:59:09;;;;;;;0.50;0.35;;;21.10;99.90;;;;;;6235445;22;20022;-89
2022/07/25 12:01:38;;;;;;;0.43;0.32;;;21.20;99.90;;;;;;6233322;22;20083;-90
2022/07/25 12:04:18;;;;;;;0.30;0.30;;;21.60;99.90;;;;;;6230116;22;20016;-91
2022/07/25 12:06:50;;;;;;;0.35;0.35;;;22.40;98.70;;;;;;6229826;22;20089;-90
2022/07/25 12:09:20;;;;;;;0.68;0.40;;;23.00;98.20;;;;;;6226323;22;20046;-91
2022/07/25 12:11:48;;;;;;;0.80;0.38;;;23.40;97.00;;;;;;6224411;22;20138;-91
2022/07/25 12:14:17;;;;;;;0.38;0.30;;;23.40;96.40;;;;;;6225054;22;20020;-89
2022/07/25 12:16:44;;;;;;;0.85;0.30;;;23.40;95.90;;;;;;6225046;22;20035;-92
2022/07/25 12:19:19;;;;;;;0.30;0.30;;;23.20;96.50;;;;;;6226026;22;20343;-91
2022/07/25 12:21:46;;;;;;;0.65;0.30;;;22.80;96.80;;;;;;6227089;22;20027;-90
2022/07/25 12:24:14;;;;;;;0.40;0.40;;;22.80;97.40;;;;;;6225877;22;20499;-91
2022/07/25 12:26:41;;;;;;;1.35;0.20;;;23.30;96.80;;;;;;6224250;22;20016;-91
2022/07/25 12:29:08;;;;;;;0.98;0.30;;;23.50;96.40;;;;;;6224686;22;20036;-89
2022/07/25 12:31:36;;;;;;;0.20;0.20;;;23.40;96.20;;;;;;6226776;22;20019;-91
2022/07/25 12:34:09;;;;;;;0.00;0.00;;;23.40;96.10;;;;;;6227573;22;20011;-91
2022/07/25 12:37:00;;;;;;;0.17;0.13;;;23.20;96.10;;;;;;6237395;22;20019;-91
2022/07/25 12:39:27;;;;;;;0.20;0.20;;;23.00;96.30;;;;;;6228235;22;20414;-91
2022/07/25 12:41:55;;;;;;;0.43;0.30;;;22.90;96.60;;;;;;6227342;22;20043;-90
2022/07/25 12:44:28;;;;;;;0.10;0.10;;;22.70;97.10;;;;;;6227997;22;20018;-92
2022/07/25 12:46:56;;;;;;;0.20;0.20;;;22.50;97.60;;;;;;6228563;22;20059;-92
2022/07/25 12:49:23;;;;;;;0.32;0.17;;;22.40;97.50;;;;;;6235343;22;20126;-91
2022/07/25 12:51:51;;;;;;;0.85;0.40;;;22.30;97.40;;;;;;6228267;22;20025;-90
2022/07/25 12:54:24;;;;;;;0.35;0.20;;;22.40;97.30;;;;;;6229877;22;20011;-92
2022/07/25 12:56:56;;;;;;;0.32;0.30;;;22.50;97.00;;;;;;6226316;22;20016;-92
2022/07/25 12:59:23;;;;;;;0.30;0.30;;;22.60;96.70;;;;;;6225879;22;20023;-91
2022/07/25 13:01:50;;;;;;;0.20;0.20;;;22.80;96.50;;;;;;6225825;22;20409;-90
2022/07/25 13:04:18;;;;;;;0.75;0.30;;;23.00;96.20;;;;;;6234078;22;20079;-92
2022/07/25 13:06:45;;;;;;;0.20;0.20;;;23.20;95.10;;;;;;6235386;22;20023;-90
2022/07/25 13:09:12;;;;;;;0.40;0.40;;;23.40;94.60;;;;;;6225776;22;20020;-91
2022/07/25 13:11:42;;;;;;;0.52;0.30;;;23.50;94.20;;;;;;6225733;22;20050;-90
2022/07/25 13:14:12;;;;;;;0.22;0.20;;;23.60;93.80;;;;;;6227470;22;20019;-90
2022/07/25 13:16:40;;;;;;;1.02;0.57;;;23.80;93.90;;;;;;6226469;22;20027;-91
2022/07/25 13:19:08;;;;;;;1.13;0.30;;;23.90;93.30;;;;;;6226484;22;20011;-91
2022/07/25 13:21:37;;;;;;;0.38;0.20;;;24.10;92.30;;;;;;6224578;22;20020;-92
2022/07/25 13:24:06;;;;;;;0.10;0.10;;;24.20;91.70;;;;;;6224522;22;20077;-91